Mc Ghee Tyson Airport
KTYS : now visible

Airfield :











YOU CAN JOIN US ON...

 
LOGIN :

Register | Disclaimer

   EN    FR    IT 

 









Legend :    VFR   Marginal VFR   IFR   Intensive IFR   Very Intensive IFR
Visi :
Ceiling :
>= 8 km
>= 3000ft
5 to 8 km
1000 to 3000 ft
1500m to 5 km
500 to 1000 ft
800 to 1500m
200 to 500 ft
< 800m
< 200 ft
Symbols :   Thunderstorms  Fog  Heavy snow  Heavy precipitations  Wind > 20 kt






- Airport Elevation : 981 ft
- IATA code : TYS


KTYS - Mc Ghee Tyson

CURRENT METAR :
  • 270153Z 23004KT 10SM FEW200 12/04 A2994 RMK AO2 SLP135 T01170039

EXPIRED METARs :
  • 270053Z 24006KT 10SM CLR 12/04 A2993 RMK AO2 SLP130 T01220039
  • 262353Z 21005KT 10SM CLR 13/04 A2991 RMK AO2 SLP124 T01330039 10178 20133 53013

TAF KTYS
Valid from the 27 at 00:00 until the 28 at 00:00 UTC


262339Z 2700/2724 23006KT P6SM FEW200
FM270800 06004KT P6SM OVC070
FM271800 35007KT P6SM OVC050
FM272100 34009KT P6SM BKN019
PROB30 2721/2722 5SM -SHRA OVC008
KZTL FIR / North America



MET'MAP, your aeronautical weather chart ! - Copyright ORBIFLY December 2007 - Disclaimer

ORBIFLY MET'MAP TEAM :

Programming & Development : Alexandra Zaïnal
Concept & original design : Baudouin d'Aumeries
Assistance for programming : Marc-Olivier Méhu
Technical & hardware support : Manuel Goepfert

Contact : metmap@orbifly.com




SOURCES & CREDITS :

   NOAA       Earth
Advisory